Time;durP1;ratioP1;P1;durP2;ratioP2;P2;SDS_P1;SDS_P2;PMS_P1;PMS_P2;Temp;Humidity;BMP_temperature;BMP_pressure;BME280_temperature;BME280_humidity;BME280_pressure;Samples;Min_cycle;Max_cycle;Signal;HPM_P1;HPM_P2
2022/08/03 00:02:16;;;;;;;5.13;1.88;;;22.70;57.60;;;;;;5113844;28;20042;-73
2022/08/03 00:04:42;;;;;;;3.22;2.20;;;22.70;57.70;;;;;;5113996;28;20020;-76
2022/08/03 00:07:08;;;;;;;3.53;2.40;;;22.60;57.60;;;;;;5113878;28;20069;-73
2022/08/03 00:09:37;;;;;;;5.38;2.15;;;22.60;58.00;;;;;;5112976;28;20023;-73
2022/08/03 00:12:03;;;;;;;10.52;2.75;;;22.60;57.90;;;;;;5112754;27;20083;-78
2022/08/03 00:14:29;;;;;;;3.65;2.20;;;22.60;58.00;;;;;;5112641;28;20468;-76
2022/08/03 00:16:55;;;;;;;4.25;2.15;;;22.50;58.00;;;;;;5113805;28;20080;-75
2022/08/03 00:19:21;;;;;;;2.80;2.10;;;22.50;58.20;;;;;;5113655;27;20106;-76
2022/08/03 00:21:46;;;;;;;3.03;1.98;;;22.50;58.10;;;;;;5113441;28;20058;-76
2022/08/03 00:24:12;;;;;;;2.95;2.08;;;22.40;58.20;;;;;;5113544;28;20024;-75
2022/08/03 00:26:38;;;;;;;4.75;1.88;;;22.40;58.20;;;;;;5113521;28;20024;-72
2022/08/03 00:29:03;;;;;;;4.57;2.25;;;22.40;58.50;;;;;;5112748;28;20034;-72
2022/08/03 00:31:29;;;;;;;4.05;2.15;;;22.40;58.50;;;;;;5093110;28;20095;-72
2022/08/03 00:33:55;;;;;;;3.03;1.90;;;22.40;58.60;;;;;;5101056;28;20032;-75
2022/08/03 00:36:21;;;;;;;3.20;2.15;;;22.30;58.60;;;;;;5113398;28;20027;-73
2022/08/03 00:38:46;;;;;;;3.15;2.20;;;22.30;58.60;;;;;;5113669;28;20020;-75
2022/08/03 00:41:12;;;;;;;6.55;1.90;;;22.30;58.80;;;;;;5112641;28;20031;-77
2022/08/03 00:43:38;;;;;;;3.33;1.95;;;22.30;58.90;;;;;;5092922;28;20020;-74
2022/08/03 00:46:03;;;;;;;4.13;2.03;;;22.20;58.90;;;;;;5092721;28;20052;-74
2022/08/03 00:48:29;;;;;;;5.95;2.28;;;22.20;59.10;;;;;;5092891;28;20067;-75
2022/08/03 00:50:56;;;;;;;3.78;2.05;;;22.20;59.10;;;;;;5092750;28;20032;-74
2022/08/03 00:53:23;;;;;;;5.10;1.98;;;22.20;59.30;;;;;;5092732;28;20031;-73
2022/08/03 00:55:48;;;;;;;2.53;2.13;;;22.10;59.30;;;;;;5092656;28;20024;-74
2022/08/03 00:58:15;;;;;;;4.25;2.20;;;22.10;59.20;;;;;;5092788;28;20084;-77
2022/08/03 01:00:40;;;;;;;4.10;2.17;;;22.10;59.40;;;;;;5092648;28;20431;-77
2022/08/03 01:03:08;;;;;;;6.63;1.92;;;22.10;59.40;;;;;;5092780;28;20031;-74
2022/08/03 01:05:49;;;;;;;3.08;2.22;;;22.00;59.80;;;;;;5092447;28;20028;-75
2022/08/03 01:08:35;;;;;;;3.10;2.13;;;22.00;59.70;;;;;;5092391;28;20026;-77
2022/08/03 01:11:22;;;;;;;6.22;2.10;;;22.00;59.70;;;;;;5092258;28;20026;-77
2022/08/03 01:14:12;;;;;;;3.63;2.20;;;22.00;59.80;;;;;;5092313;28;20421;-74
2022/08/03 01:16:50;;;;;;;4.35;2.28;;;22.00;59.90;;;;;;5091868;28;20039;-74
2022/08/03 01:19:45;;;;;;;3.65;2.17;;;22.00;59.90;;;;;;5092331;28;20032;-75
2022/08/03 01:23:01;;;;;;;5.95;2.25;;;22.00;59.70;;;;;;5091796;28;20044;-75
2022/08/03 01:25:58;;;;;;;6.05;2.08;;;22.00;59.50;;;;;;5065982;28;20115;-73
2022/08/03 01:28:24;;;;;;;3.97;2.10;;;21.90;59.60;;;;;;5092007;28;20046;-72
2022/08/03 01:30:54;;;;;;;3.13;2.45;;;21.90;59.70;;;;;;5090835;28;20024;-75
2022/08/03 01:33:32;;;;;;;2.97;2.38;;;21.90;59.80;;;;;;5092299;28;20016;-75
2022/08/03 01:36:02;;;;;;;3.92;2.22;;;21.90;59.70;;;;;;5090894;28;20032;-77
2022/08/03 01:38:40;;;;;;;2.83;1.83;;;21.90;59.60;;;;;;5092139;28;20095;-76
2022/08/03 01:41:28;;;;;;;2.22;2.03;;;21.80;59.70;;;;;;5092301;28;20361;-77
2022/08/03 01:43:56;;;;;;;2.13;1.90;;;21.80;59.70;;;;;;5091971;28;20016;-77
2022/08/03 01:46:24;;;;;;;5.07;2.15;;;21.80;60.00;;;;;;5091835;28;20064;-75
2022/08/03 01:48:51;;;;;;;3.50;2.20;;;21.80;60.30;;;;;;5092003;28;20016;-72
2022/08/03 01:51:19;;;;;;;3.47;2.17;;;21.80;60.30;;;;;;5091868;28;20024;-74
2022/08/03 01:53:49;;;;;;;2.95;1.83;;;21.80;60.30;;;;;;5090670;28;20031;-73
2022/08/03 01:56:18;;;;;;;2.17;1.90;;;21.80;60.20;;;;;;5091867;28;20031;-74
2022/08/03 01:58:46;;;;;;;2.90;1.92;;;21.70;60.00;;;;;;5091962;28;20381;-72
2022/08/03 02:01:14;;;;;;;6.45;2.65;;;21.70;60.10;;;;;;5091823;28;20016;-77
2022/08/03 02:03:42;;;;;;;3.45;2.20;;;21.70;60.50;;;;;;5090517;28;20099;-76
2022/08/03 02:06:10;;;;;;;3.35;2.53;;;21.70;60.50;;;;;;5102838;28;20020;-75
2022/08/03 02:08:39;;;;;;;2.85;1.73;;;21.70;60.30;;;;;;5112010;28;20545;-74
2022/08/03 02:11:05;;;;;;;7.00;2.00;;;21.70;60.60;;;;;;5112064;28;20039;-72
2022/08/03 02:13:33;;;;;;;6.85;2.17;;;21.60;61.10;;;;;;5112632;28;20373;-75
2022/08/03 02:16:01;;;;;;;4.07;2.35;;;21.60;60.50;;;;;;5111992;28;20028;-76
2022/08/03 02:18:28;;;;;;;4.43;2.15;;;21.60;60.50;;;;;;5112044;28;20070;-76
2022/08/03 02:20:55;;;;;;;4.93;2.38;;;21.60;60.70;;;;;;5111792;28;20047;-76
2022/08/03 02:23:21;;;;;;;4.20;2.42;;;21.60;61.00;;;;;;5111964;28;20019;-77
2022/08/03 02:25:52;;;;;;;6.25;2.38;;;21.60;60.90;;;;;;5112053;28;20034;-74
2022/08/03 02:28:38;;;;;;;5.78;2.42;;;21.60;60.90;;;;;;5093916;28;20024;-74
2022/08/03 02:31:23;;;;;;;3.75;2.42;;;21.50;61.10;;;;;;5095369;28;20492;-74
2022/08/03 02:33:52;;;;;;;;;;;21.50;60.90;;;;;;5101992;27;20129;-73
2022/08/03 02:36:24;;;;;;;4.72;2.60;;;21.60;60.10;;;;;;5115643;28;19931;-73
2022/08/03 02:38:53;;;;;;;8.57;2.10;;;21.60;60.70;;;;;;5114282;28;20027;-73
2022/08/03 02:41:23;;;;;;;8.88;2.28;;;21.50;60.70;;;;;;5115178;28;20031;-76
2022/08/03 02:43:53;;;;;;;3.42;2.13;;;21.50;61.00;;;;;;5095060;28;20027;-77
2022/08/03 02:46:23;;;;;;;2.65;2.30;;;21.50;61.00;;;;;;5095016;28;20046;-77
2022/08/03 02:48:50;;;;;;;3.72;1.90;;;21.50;61.20;;;;;;5094970;28;20016;-74
2022/08/03 02:51:19;;;;;;;2.70;2.17;;;21.50;61.30;;;;;;5094824;28;20047;-77
2022/08/03 02:53:46;;;;;;;4.82;2.17;;;21.50;61.40;;;;;;5094843;28;20016;-74
2022/08/03 02:56:13;;;;;;;6.30;2.05;;;21.50;61.30;;;;;;5094905;28;20028;-75
2022/08/03 02:58:42;;;;;;;3.80;1.77;;;21.40;61.20;;;;;;5094805;28;20103;-73
2022/08/03 03:01:09;;;;;;;4.10;2.08;;;21.40;61.20;;;;;;5094853;28;20028;-74
2022/08/03 03:03:37;;;;;;;4.28;2.30;;;21.40;61.40;;;;;;5094888;28;20021;-76
2022/08/03 03:06:04;;;;;;;3.00;2.13;;;21.40;61.50;;;;;;5094652;28;20039;-78
2022/08/03 03:08:30;;;;;;;7.32;2.55;;;21.40;61.80;;;;;;5094766;28;20031;-78
2022/08/03 03:10:59;;;;;;;3.67;2.90;;;21.40;62.00;;;;;;5094369;28;20024;-74
2022/08/03 03:13:27;;;;;;;3.80;2.40;;;21.40;62.40;;;;;;5094404;28;20020;-75
2022/08/03 03:15:58;;;;;;;2.90;2.40;;;21.40;62.20;;;;;;5094382;28;20025;-72
2022/08/03 03:18:26;;;;;;;4.15;2.30;;;21.40;62.10;;;;;;5094312;28;20031;-76
2022/08/03 03:20:53;;;;;;;5.15;2.53;;;21.40;62.00;;;;;;5092599;28;20047;-72
2022/08/03 03:23:22;;;;;;;5.13;2.30;;;21.40;61.80;;;;;;5094185;28;20149;-75
2022/08/03 03:25:48;;;;;;;8.32;2.47;;;21.30;62.00;;;;;;5094046;28;20023;-77
2022/08/03 03:28:14;;;;;;;4.32;2.35;;;21.30;62.40;;;;;;5092844;28;20035;-73
2022/08/03 03:30:41;;;;;;;4.30;2.10;;;21.30;62.50;;;;;;5093832;28;20020;-76
2022/08/03 03:33:07;;;;;;;5.03;2.60;;;21.30;62.60;;;;;;5093745;28;20466;-73
2022/08/03 03:35:33;;;;;;;3.55;2.38;;;21.30;62.70;;;;;;5092816;28;20035;-74
2022/08/03 03:37:59;;;;;;;5.47;2.90;;;21.30;62.70;;;;;;5093904;28;20095;-78
2022/08/03 03:40:26;;;;;;;3.63;2.60;;;21.30;63.80;;;;;;5093889;28;20057;-75
2022/08/03 03:42:52;;;;;;;4.93;2.72;;;21.30;62.80;;;;;;5093721;28;20032;-74
2022/08/03 03:45:19;;;;;;;5.97;3.15;;;21.30;62.80;;;;;;5092416;28;20093;-75
2022/08/03 03:47:45;;;;;;;7.95;2.42;;;21.20;62.70;;;;;;5093785;28;20020;-75
2022/08/03 03:50:11;;;;;;;4.32;2.72;;;21.20;62.70;;;;;;5093725;28;20016;-76
2022/08/03 03:52:37;;;;;;;5.93;2.88;;;21.20;62.80;;;;;;5093648;28;20354;-74
2022/08/03 03:55:03;;;;;;;3.53;2.95;;;21.20;63.40;;;;;;5093214;28;20082;-74
2022/08/03 03:57:29;;;;;;;3.17;2.13;;;21.20;63.20;;;;;;5093611;28;20030;-76
2022/08/03 03:59:54;;;;;;;5.70;2.45;;;21.20;63.10;;;;;;5093520;28;20187;-76
2022/08/03 04:02:20;;;;;;;3.22;2.20;;;21.20;62.90;;;;;;5093573;28;20035;-77
2022/08/03 04:13:13;;;;;;;3.60;2.35;;;21.40;62.80;;;;;;5093828;28;20088;-74
2022/08/03 04:15:41;;;;;;;4.28;2.42;;;21.40;62.80;;;;;;5093275;28;20028;-75
2022/08/03 04:18:11;;;;;;;3.38;2.20;;;21.40;62.80;;;;;;5093100;28;20500;-76
2022/08/03 04:20:39;;;;;;;2.47;1.90;;;21.40;62.90;;;;;;5092887;28;20038;-76
2022/08/03 04:23:06;;;;;;;2.95;2.25;;;21.40;62.90;;;;;;5093115;28;20495;-76
2022/08/03 04:25:35;;;;;;;4.78;2.20;;;21.50;62.90;;;;;;5091561;28;20028;-78
2022/08/03 04:28:02;;;;;;;4.38;2.30;;;21.50;63.70;;;;;;5092977;28;20540;-75
2022/08/03 04:30:30;;;;;;;3.22;2.10;;;21.50;62.80;;;;;;5092924;28;20080;-75
2022/08/03 04:32:56;;;;;;;6.00;2.25;;;21.60;62.80;;;;;;5093058;28;20050;-73
2022/08/03 04:35:25;;;;;;;5.63;2.55;;;21.70;62.80;;;;;;5111741;28;20032;-75
2022/08/03 04:37:53;;;;;;;5.47;2.50;;;21.70;63.00;;;;;;5113159;28;20024;-72
2022/08/03 04:40:31;;;;;;;5.13;2.42;;;21.80;62.80;;;;;;5113182;28;20127;-73
2022/08/03 04:42:58;;;;;;;6.43;2.90;;;21.80;62.80;;;;;;5113223;28;20024;-72
2022/08/03 04:45:25;;;;;;;5.80;2.85;;;21.90;62.70;;;;;;5112948;28;20023;-75
2022/08/03 04:47:52;;;;;;;3.47;2.42;;;21.90;62.50;;;;;;5111733;28;20392;-75
2022/08/03 04:50:18;;;;;;;3.85;2.15;;;22.00;62.30;;;;;;5111831;28;20096;-75
2022/08/03 04:52:44;;;;;;;4.10;2.10;;;22.00;62.20;;;;;;5111030;28;20023;-72
2022/08/03 04:55:10;;;;;;;5.03;2.15;;;22.10;62.10;;;;;;5109184;28;20035;-77
2022/08/03 04:57:36;;;;;;;4.70;2.10;;;22.20;62.10;;;;;;5113089;28;20067;-74
2022/08/03 05:00:03;;;;;;;7.75;2.75;;;22.20;61.90;;;;;;5112815;28;20043;-73
2022/08/03 05:02:30;;;;;;;5.97;2.47;;;22.30;61.90;;;;;;5092588;28;20039;-75
2022/08/03 05:04:57;;;;;;;3.03;2.13;;;22.30;61.80;;;;;;5092697;28;20024;-75
2022/08/03 05:07:23;;;;;;;3.67;2.33;;;22.40;61.70;;;;;;5091079;28;20034;-75
2022/08/03 05:09:49;;;;;;;3.55;2.42;;;22.40;61.60;;;;;;5092369;28;20383;-74
2022/08/03 05:12:14;;;;;;;6.30;2.67;;;22.50;61.50;;;;;;5092263;28;20024;-74
2022/08/03 05:14:40;;;;;;;3.40;2.50;;;22.50;61.30;;;;;;5092182;28;20431;-74
2022/08/03 05:17:07;;;;;;;5.70;2.53;;;22.60;61.20;;;;;;5092250;28;20032;-75
2022/08/03 05:19:33;;;;;;;5.28;2.42;;;22.70;61.20;;;;;;5092110;28;20472;-77
2022/08/03 05:21:59;;;;;;;5.40;2.75;;;22.70;61.00;;;;;;5110500;28;20043;-73
2022/08/03 05:24:26;;;;;;;4.68;3.55;;;22.70;60.70;;;;;;5091972;28;20048;-73
2022/08/03 05:26:52;;;;;;;5.18;2.35;;;22.80;60.70;;;;;;5092036;28;20035;-75
2022/08/03 05:29:18;;;;;;;5.88;3.05;;;22.80;60.60;;;;;;5091986;28;20074;-75
2022/08/03 05:31:44;;;;;;;8.70;2.35;;;22.90;60.70;;;;;;5107200;28;20032;-73
2022/08/03 05:34:10;;;;;;;6.65;2.67;;;22.90;60.50;;;;;;5102151;28;20085;-76
2022/08/03 05:36:35;;;;;;;10.25;2.80;;;23.00;60.60;;;;;;5091708;28;20098;-77
2022/08/03 05:39:01;;;;;;;6.07;2.65;;;23.00;60.30;;;;;;5091744;28;20483;-74
2022/08/03 05:41:27;;;;;;;7.25;3.25;;;23.00;59.90;;;;;;5097502;28;20085;-73
2022/08/03 05:43:54;;;;;;;3.80;2.33;;;23.10;59.80;;;;;;5111825;28;20030;-78
2022/08/03 05:46:23;;;;;;;4.38;2.42;;;23.10;59.60;;;;;;5111891;28;20469;-74
2022/08/03 05:48:49;;;;;;;4.28;2.55;;;23.20;59.50;;;;;;5112056;28;20016;-77
2022/08/03 05:51:15;;;;;;;6.38;2.85;;;23.30;59.40;;;;;;5110318;28;20027;-76
2022/08/03 05:53:42;;;;;;;17.17;4.55;;;23.30;59.20;;;;;;5118503;28;20027;-73
2022/08/03 05:56:08;;;;;;;9.05;2.75;;;23.30;58.90;;;;;;5121175;28;20075;-73
2022/08/03 05:58:34;;;;;;;2.97;2.03;;;23.40;58.80;;;;;;5122053;28;20441;-72
2022/08/03 06:01:00;;;;;;;7.53;3.30;;;23.50;58.80;;;;;;5123155;28;20103;-77
2022/08/03 06:03:26;;;;;;;9.95;3.58;;;23.50;58.80;;;;;;5120785;27;20376;-73
2022/08/03 06:05:55;;;;;;;6.00;2.90;;;23.60;58.60;;;;;;5126685;27;20357;-72
2022/08/03 06:08:21;;;;;;;10.43;3.15;;;23.60;58.30;;;;;;5118223;27;20046;-72
2022/08/03 06:10:48;;;;;;;9.95;3.85;;;23.70;58.50;;;;;;5121854;27;20031;-71
2022/08/03 06:13:13;;;;;;;7.35;3.17;;;23.70;58.30;;;;;;5125423;27;20394;-76
2022/08/03 06:15:39;;;;;;;7.13;3.47;;;23.80;58.30;;;;;;5117413;27;20027;-74
2022/08/03 06:18:06;;;;;;;7.38;2.95;;;23.90;58.00;;;;;;5127013;27;20024;-69
2022/08/03 06:20:32;;;;;;;9.93;3.80;;;23.90;57.90;;;;;;5121531;27;20016;-74
2022/08/03 06:22:59;;;;;;;13.45;4.28;;;24.00;57.90;;;;;;5103719;27;20119;-74
2022/08/03 06:25:25;;;;;;;10.93;4.40;;;24.10;57.70;;;;;;5115986;28;20423;-74
2022/08/03 06:27:51;;;;;;;8.57;4.70;;;24.10;57.60;;;;;;5115016;28;20028;-74
2022/08/03 06:30:17;;;;;;;10.20;6.65;;;24.20;57.50;;;;;;5106056;28;20028;-73
2022/08/03 06:32:43;;;;;;;8.05;4.82;;;24.20;57.60;;;;;;5096372;28;20020;-74
2022/08/03 06:35:09;;;;;;;11.07;5.20;;;24.30;57.50;;;;;;5112172;28;20137;-74
2022/08/03 06:37:43;;;;;;;10.50;5.00;;;24.40;57.30;;;;;;5096436;27;20386;-74
2022/08/03 06:40:10;;;;;;;;;;;24.40;57.10;;;;;;5096101;28;20055;-74
2022/08/03 06:42:36;;;;;;;10.02;5.03;;;24.50;57.70;;;;;;5095642;28;20368;-75
2022/08/03 06:45:02;;;;;;;15.55;6.03;;;24.60;56.80;;;;;;5095898;28;20020;-74
2022/08/03 06:47:28;;;;;;;14.48;7.25;;;24.70;56.50;;;;;;5094676;28;20042;-74
2022/08/03 06:49:54;;;;;;;12.82;6.72;;;24.70;56.10;;;;;;5094598;28;20020;-75
2022/08/03 06:52:20;;;;;;;11.35;6.32;;;24.80;56.20;;;;;;5095835;28;20435;-75
2022/08/03 06:54:46;;;;;;;14.10;6.43;;;24.90;56.20;;;;;;5095715;28;20024;-74
2022/08/03 06:57:11;;;;;;;10.98;6.10;;;24.90;56.10;;;;;;5095821;28;20068;-74
2022/08/03 06:59:37;;;;;;;13.75;7.38;;;25.00;56.10;;;;;;5095896;28;20028;-75
2022/08/03 07:02:03;;;;;;;11.55;6.72;;;25.00;55.90;;;;;;5095708;28;20032;-74
2022/08/03 07:04:29;;;;;;;11.38;6.22;;;25.10;55.60;;;;;;5108552;28;20102;-75
2022/08/03 07:06:55;;;;;;;15.77;6.55;;;25.20;55.80;;;;;;5115895;28;20069;-74
2022/08/03 07:09:21;;;;;;;9.57;6.20;;;25.20;55.50;;;;;;5115913;28;20095;-74
2022/08/03 07:11:47;;;;;;;11.82;5.72;;;25.30;55.30;;;;;;5115914;27;20171;-75
2022/08/03 07:14:13;;;;;;;9.00;5.00;;;25.30;55.30;;;;;;5115503;28;20027;-75
2022/08/03 07:16:39;;;;;;;6.13;4.43;;;25.40;55.30;;;;;;5113985;28;20031;-75
2022/08/03 07:19:04;;;;;;;8.80;4.25;;;25.50;55.20;;;;;;5115614;28;20028;-74
2022/08/03 07:21:30;;;;;;;6.68;5.93;;;25.60;54.70;;;;;;5094132;28;20533;-74
2022/08/03 07:23:56;;;;;;;7.03;5.53;;;25.60;54.50;;;;;;5095154;28;20031;-74
2022/08/03 07:26:22;;;;;;;5.88;4.80;;;25.70;54.20;;;;;;5095168;28;20052;-74
2022/08/03 07:28:47;;;;;;;9.77;5.35;;;25.80;54.00;;;;;;5093871;28;20111;-75
2022/08/03 07:31:13;;;;;;;5.50;4.45;;;25.80;54.10;;;;;;5095107;28;20026;-74
2022/08/03 07:33:39;;;;;;;7.63;4.60;;;25.90;54.20;;;;;;5094871;27;20111;-74
2022/08/03 07:36:05;;;;;;;6.25;4.80;;;25.90;54.20;;;;;;5094918;28;20028;-75
2022/08/03 07:38:30;;;;;;;4.70;3.55;;;26.00;53.90;;;;;;5094847;28;20024;-75
2022/08/03 07:40:56;;;;;;;6.00;4.18;;;26.10;54.10;;;;;;5093648;28;20093;-73
2022/08/03 07:43:25;;;;;;;9.57;3.63;;;26.10;53.90;;;;;;5094968;28;20107;-75
2022/08/03 07:45:51;;;;;;;8.63;4.32;;;26.20;53.80;;;;;;5094717;28;20054;-75
2022/08/03 07:48:16;;;;;;;8.18;5.10;;;26.30;53.50;;;;;;5094704;28;20035;-74
2022/08/03 07:50:42;;;;;;;7.65;3.70;;;26.30;52.90;;;;;;5093328;28;20024;-74
2022/08/03 07:53:08;;;;;;;6.95;4.10;;;26.40;52.80;;;;;;5094615;28;20110;-74
2022/08/03 07:55:34;;;;;;;5.78;3.25;;;26.50;52.20;;;;;;5094907;28;20031;-75
2022/08/03 07:58:02;;;;;;;6.15;3.28;;;26.50;52.20;;;;;;5094690;28;20020;-74
2022/08/03 08:00:29;;;;;;;4.60;3.17;;;26.60;52.50;;;;;;5094639;28;20016;-75
2022/08/03 08:02:54;;;;;;;3.33;2.83;;;26.60;51.70;;;;;;5094472;28;20020;-75
2022/08/03 08:05:20;;;;;;;3.13;2.20;;;26.70;52.10;;;;;;5112551;28;20034;-75
2022/08/03 08:07:46;;;;;;;6.65;2.83;;;26.70;51.80;;;;;;5114844;28;20023;-75
2022/08/03 08:10:12;;;;;;;4.15;2.55;;;26.80;52.00;;;;;;5114738;28;20068;-75
2022/08/03 08:12:38;;;;;;;5.57;2.65;;;26.80;51.80;;;;;;5113374;28;20096;-75
2022/08/03 08:15:05;;;;;;;2.45;2.20;;;26.90;51.80;;;;;;5114459;28;20050;-74
2022/08/03 08:17:50;;;;;;;2.20;2.00;;;27.00;52.10;;;;;;5114526;28;20080;-74
2022/08/03 08:20:21;;;;;;;3.08;2.30;;;27.00;51.30;;;;;;5094284;28;20059;-74
2022/08/03 08:22:48;;;;;;;4.28;2.38;;;27.10;50.60;;;;;;5093798;28;20131;-75
2022/08/03 08:25:14;;;;;;;2.53;2.30;;;27.10;51.00;;;;;;5093939;28;20023;-75
2022/08/03 08:27:42;;;;;;;2.40;2.20;;;27.20;50.70;;;;;;5093062;28;20020;-74
2022/08/03 08:30:09;;;;;;;2.33;2.03;;;27.20;50.50;;;;;;5094000;28;20050;-75
2022/08/03 08:32:36;;;;;;;6.03;2.10;;;27.30;50.70;;;;;;5094167;28;20118;-75
2022/08/03 08:35:03;;;;;;;2.10;1.95;;;27.30;50.80;;;;;;5094415;27;20456;-74
2022/08/03 08:37:29;;;;;;;2.70;1.95;;;27.40;50.20;;;;;;5114164;28;20031;-74
2022/08/03 08:39:56;;;;;;;10.85;3.35;;;27.50;49.90;;;;;;5114205;28;20098;-75
2022/08/03 08:42:21;;;;;;;7.32;2.63;;;27.50;50.10;;;;;;5114090;28;20063;-74
2022/08/03 08:44:47;;;;;;;4.60;2.42;;;27.60;50.50;;;;;;5113997;28;20056;-74
2022/08/03 08:47:14;;;;;;;2.70;2.00;;;27.70;50.30;;;;;;5114065;28;20020;-75
2022/08/03 08:49:40;;;;;;;3.92;2.25;;;27.80;50.10;;;;;;5114053;28;20016;-75
2022/08/03 08:52:10;;;;;;;3.63;2.47;;;27.80;49.90;;;;;;5114061;28;20369;-74
2022/08/03 08:54:37;;;;;;;2.38;2.17;;;27.90;49.90;;;;;;5113896;28;20031;-73
2022/08/03 08:57:04;;;;;;;3.75;2.00;;;28.00;49.90;;;;;;5113777;28;20024;-73
2022/08/03 08:59:33;;;;;;;3.97;2.05;;;28.00;49.50;;;;;;5113873;28;20027;-73
2022/08/03 09:01:59;;;;;;;2.53;1.80;;;28.10;48.70;;;;;;5113707;28;20028;-74
2022/08/03 09:04:28;;;;;;;2.47;2.13;;;28.20;48.40;;;;;;5102306;28;20024;-74
2022/08/03 09:06:54;;;;;;;2.20;2.00;;;28.20;48.90;;;;;;5093320;28;20020;-73
2022/08/03 09:09:19;;;;;;;3.47;1.80;;;28.30;49.10;;;;;;5092068;28;20024;-74
2022/08/03 09:11:47;;;;;;;3.55;1.95;;;28.30;48.40;;;;;;5093258;28;20028;-74
2022/08/03 09:14:13;;;;;;;2.92;1.95;;;28.40;48.10;;;;;;5093296;28;20024;-74
2022/08/03 09:17:01;;;;;;;1.90;1.80;;;28.50;47.90;;;;;;5093185;28;20031;-74
2022/08/03 09:19:28;;;;;;;3.70;1.88;;;28.50;48.30;;;;;;5093421;28;20055;-74
2022/08/03 09:22:16;;;;;;;2.05;1.85;;;28.60;47.60;;;;;;5091631;28;20079;-75
2022/08/03 09:25:02;;;;;;;3.33;1.80;;;28.60;48.00;;;;;;5093230;28;20362;-75
2022/08/03 09:27:29;;;;;;;1.90;1.67;;;28.80;47.80;;;;;;5093186;28;20381;-74
2022/08/03 09:29:56;;;;;;;2.25;1.50;;;28.80;46.90;;;;;;5091816;28;20024;-75
2022/08/03 09:32:24;;;;;;;1.50;1.40;;;28.90;46.70;;;;;;5092661;28;20024;-74
2022/08/03 09:34:51;;;;;;;2.33;1.80;;;29.00;46.90;;;;;;5093136;28;20098;-74
2022/08/03 09:37:19;;;;;;;2.17;1.98;;;29.00;46.50;;;;;;5092912;28;20025;-74
2022/08/03 09:39:46;;;;;;;2.67;1.90;;;29.00;46.70;;;;;;5095787;28;20051;-73
2022/08/03 09:42:17;;;;;;;1.73;1.63;;;29.10;46.20;;;;;;5095974;28;20024;-74
2022/08/03 09:44:46;;;;;;;1.60;1.50;;;29.20;46.40;;;;;;5097228;28;20027;-74
2022/08/03 09:47:13;;;;;;;2.25;1.65;;;29.20;45.90;;;;;;5097244;28;20048;-74
2022/08/03 09:49:41;;;;;;;3.25;2.33;;;29.30;45.10;;;;;;5097515;28;20020;-74
2022/08/03 09:52:15;;;;;;;1.88;1.58;;;29.30;44.80;;;;;;5095863;28;20031;-74
2022/08/03 09:54:41;;;;;;;3.33;1.48;;;29.40;45.20;;;;;;5095799;28;20028;-74
2022/08/03 09:57:18;;;;;;;3.20;1.67;;;29.40;45.10;;;;;;5096961;28;20055;-74
2022/08/03 09:59:44;;;;;;;2.17;1.75;;;29.50;45.00;;;;;;5097022;28;20383;-74
2022/08/03 10:02:22;;;;;;;2.33;1.83;;;29.50;45.10;;;;;;5096830;28;20031;-74
2022/08/03 10:04:51;;;;;;;2.28;2.00;;;29.60;44.60;;;;;;5096705;28;20024;-75
2022/08/03 10:07:20;;;;;;;2.20;1.98;;;29.70;44.40;;;;;;5096778;28;20039;-75
2022/08/03 10:10:00;;;;;;;1.70;1.60;;;29.70;44.50;;;;;;5095455;28;20020;-75
2022/08/03 10:12:26;;;;;;;1.85;1.75;;;29.80;44.00;;;;;;5096747;28;20028;-75
2022/08/03 10:14:53;;;;;;;3.67;1.50;;;29.80;44.10;;;;;;5096782;28;20395;-74
2022/08/03 10:17:20;;;;;;;2.17;1.55;;;29.90;44.10;;;;;;5096635;28;20380;-75
2022/08/03 10:19:47;;;;;;;3.75;1.27;;;29.90;44.10;;;;;;5095218;28;20389;-74
2022/08/03 10:22:15;;;;;;;2.05;1.45;;;30.00;44.20;;;;;;5096299;28;20089;-74
2022/08/03 10:25:06;;;;;;;3.08;1.83;;;30.10;44.40;;;;;;5095132;28;20020;-74
2022/08/03 10:27:36;;;;;;;3.28;1.50;;;30.10;43.90;;;;;;5096541;28;20020;-74
2022/08/03 10:30:08;;;;;;;2.00;1.70;;;30.20;43.20;;;;;;5096304;28;20038;-74
2022/08/03 10:32:38;;;;;;;1.67;1.45;;;30.20;41.50;;;;;;5095055;28;20473;-74
2022/08/03 10:35:07;;;;;;;2.63;1.50;;;30.20;42.00;;;;;;5096800;28;20028;-74
2022/08/03 10:37:44;;;;;;;2.53;1.60;;;30.30;40.70;;;;;;5096132;28;20380;-75
2022/08/03 10:40:14;;;;;;;2.03;1.52;;;30.40;41.60;;;;;;5094793;28;20027;-75
2022/08/03 10:42:43;;;;;;;2.78;1.50;;;30.40;42.10;;;;;;5095912;28;20047;-75
2022/08/03 10:45:20;;;;;;;2.00;1.50;;;30.50;39.80;;;;;;5095969;28;20020;-75
2022/08/03 10:47:47;;;;;;;3.47;1.50;;;30.50;39.70;;;;;;5095969;28;20089;-75
2022/08/03 10:50:14;;;;;;;1.60;1.40;;;30.50;40.40;;;;;;5093447;28;20487;-75
2022/08/03 10:53:05;;;;;;;2.20;1.13;;;30.60;41.00;;;;;;5096021;28;20028;-75
2022/08/03 10:58:51;;;;;;;;;;;30.80;40.90;;;;;;5096702;28;20119;-74
2022/08/03 11:01:18;;;;;;;2.58;1.65;;;30.80;41.90;;;;;;5094440;28;19958;-75
2022/08/03 11:04:14;;;;;;;1.48;1.38;;;30.80;40.50;;;;;;5095542;28;20012;-74
2022/08/03 11:06:40;;;;;;;2.63;1.45;;;30.90;40.50;;;;;;5095093;28;20040;-73
2022/08/03 11:09:09;;;;;;;1.55;1.30;;;30.90;40.50;;;;;;5095614;28;20414;-75
2022/08/03 11:11:39;;;;;;;1.50;1.13;;;30.90;39.30;;;;;;5095514;28;20031;-75
2022/08/03 11:14:19;;;;;;;1.23;0.82;;;31.00;39.40;;;;;;5095458;28;20054;-73
2022/08/03 11:16:48;;;;;;;1.67;1.10;;;31.00;39.50;;;;;;5095404;28;20100;-73
2022/08/03 11:19:21;;;;;;;1.63;1.52;;;31.00;39.10;;;;;;5095433;28;20546;-73
2022/08/03 11:21:50;;;;;;;1.40;1.30;;;31.00;39.60;;;;;;5093964;28;20443;-74
2022/08/03 11:24:46;;;;;;;1.90;1.45;;;31.10;39.60;;;;;;5095330;28;20027;-74
2022/08/03 11:27:19;;;;;;;2.20;1.52;;;31.20;40.20;;;;;;5089899;28;20052;-74
2022/08/03 11:29:58;;;;;;;;;;;31.30;39.60;;;;;;5095735;28;20027;-74
2022/08/03 11:32:39;;;;;;;3.38;1.40;;;31.30;40.50;;;;;;5095175;28;20357;-73
2022/08/03 11:35:21;;;;;;;2.90;1.63;;;31.40;39.40;;;;;;5110062;28;20051;-73
2022/08/03 11:37:53;;;;;;;3.10;1.02;;;31.40;39.40;;;;;;5115478;28;20023;-73
2022/08/03 11:40:40;;;;;;;2.53;1.40;;;31.40;39.40;;;;;;5115345;28;20050;-74
2022/08/03 11:43:29;;;;;;;2.08;1.42;;;31.50;39.50;;;;;;5115225;28;20513;-74
2022/08/03 11:45:59;;;;;;;1.58;1.48;;;31.50;38.60;;;;;;5115086;28;20031;-73
2022/08/03 11:48:37;;;;;;;1.60;1.50;;;31.60;38.10;;;;;;5115154;28;20480;-75
2022/08/03 11:51:17;;;;;;;2.40;1.15;;;31.50;37.70;;;;;;5115260;28;20024;-74
2022/08/03 11:53:43;;;;;;;1.30;1.20;;;31.60;36.00;;;;;;5115240;28;20030;-74
2022/08/03 11:56:09;;;;;;;2.20;1.55;;;31.60;36.70;;;;;;5115186;28;20068;-75
2022/08/03 11:58:46;;;;;;;1.20;1.10;;;31.60;36.00;;;;;;5113700;28;20411;-75
2022/08/03 12:01:12;;;;;;;1.38;1.20;;;31.70;36.40;;;;;;5114760;28;20027;-75
2022/08/03 12:03:38;;;;;;;1.30;1.20;;;31.70;34.50;;;;;;5109297;28;20020;-74
2022/08/03 12:06:09;;;;;;;1.20;1.08;;;31.70;36.10;;;;;;5094570;28;20369;-75
2022/08/03 12:08:35;;;;;;;1.08;0.82;;;31.70;35.40;;;;;;5094448;28;20024;-74
2022/08/03 12:11:05;;;;;;;1.15;1.00;;;31.80;35.90;;;;;;5093197;28;20028;-74
2022/08/03 12:13:49;;;;;;;1.02;0.90;;;31.80;35.00;;;;;;5094351;28;20024;-75
2022/08/03 12:16:25;;;;;;;1.52;1.00;;;31.80;35.30;;;;;;5093063;28;20016;-75
2022/08/03 12:19:03;;;;;;;3.70;1.45;;;31.90;34.30;;;;;;5092854;28;20362;-75
2022/08/03 12:21:30;;;;;;;1.70;1.00;;;31.90;34.50;;;;;;5093748;28;20516;-74
2022/08/03 12:24:01;;;;;;;1.05;0.90;;;31.90;34.20;;;;;;5092733;28;20031;-74
2022/08/03 12:26:28;;;;;;;1.13;0.90;;;31.90;35.40;;;;;;5092767;28;20530;-74
2022/08/03 12:28:54;;;;;;;1.00;0.77;;;31.90;34.40;;;;;;5109695;28;20023;-75
2022/08/03 12:31:20;;;;;;;1.08;0.90;;;32.00;34.50;;;;;;5112551;28;20027;-75
2022/08/03 12:34:03;;;;;;;1.05;0.88;;;32.00;34.90;;;;;;5108828;28;20362;-74
2022/08/03 12:36:32;;;;;;;1.45;1.00;;;32.10;34.60;;;;;;5093596;28;20024;-74
2022/08/03 12:39:00;;;;;;;1.30;1.15;;;32.10;34.20;;;;;;5092982;28;20028;-74
2022/08/03 12:41:29;;;;;;;1.05;0.90;;;32.10;34.60;;;;;;5093832;28;20381;-74
2022/08/03 12:43:55;;;;;;;3.08;1.08;;;32.20;34.40;;;;;;5092608;28;20020;-75
2022/08/03 12:46:21;;;;;;;1.00;0.80;;;32.20;33.30;;;;;;5094365;28;20020;-75
2022/08/03 12:49:02;;;;;;;0.68;0.68;;;32.20;33.60;;;;;;5114199;28;20381;-74
2022/08/03 12:51:32;;;;;;;0.77;0.77;;;32.20;32.80;;;;;;5114140;28;20099;-74
2022/08/03 12:53:58;;;;;;;0.80;0.80;;;32.30;33.20;;;;;;5114084;28;20049;-75
2022/08/03 12:56:25;;;;;;;2.30;0.88;;;32.40;32.60;;;;;;5112659;28;20445;-74
2022/08/03 12:58:51;;;;;;;2.42;0.88;;;32.40;33.00;;;;;;5114010;28;20031;-75
2022/08/03 13:01:18;;;;;;;1.02;0.75;;;32.40;32.50;;;;;;5113896;28;20016;-74
2022/08/03 13:03:47;;;;;;;0.88;0.80;;;32.40;31.10;;;;;;5112246;28;20015;-74
2022/08/03 13:06:18;;;;;;;1.05;0.98;;;32.40;31.20;;;;;;5112416;28;20412;-75
2022/08/03 13:08:46;;;;;;;1.40;0.88;;;32.50;31.50;;;;;;5113801;28;20020;-75
2022/08/03 13:11:20;;;;;;;1.83;0.80;;;32.50;31.10;;;;;;5109659;28;20023;-74